LGTG

Tanagra Airport

Tanagra, Greece
TAF LGTG 210800Z 2109/2118 34010KT 9999 FEW025 SCT070
Issued Valid From Valid To
Jun-21 @ 08:00 UTC
(2 hours ago)
Jun-21 @ 09:00 UTC
(58 minutes ago)
Jun-21 @ 18:00 UTC
(in 8 hours)
Jun-21 @ 09:00 to Jun-21 @ 18:00
TAF LGTG 210800Z 2109/2118 34010KT 9999 FEW025 SCT070
Wind Visibility Clouds
340° at 10 knots 10,000+ meters
  • Few at 2,500' AGL
  • Scattered at 7,000' AGL
TAF LGTG 210800Z 2109/2118 34010KT 9999 FEW025 SCT070
Issued Jun-21 @ 08:00 UTC
(2 hours ago)
Valid From Jun-21 @ 09:00 UTC
(58 minutes ago)
Valid To Jun-21 @ 18:00 UTC
(in 8 hours)
Jun-21 @ 09:00 - Jun-21 @ 18:00
Wind Visibility
340° at 10 knots 10,000+ meters
Clouds
  • Few at 2,500' AGL
  • Scattered at 7,000' AGL